createdAt,value
2019-06-11T00:01:22.897Z,22.80
2019-06-11T00:03:53.758Z,22.80
2019-06-11T00:06:22.950Z,22.70
2019-06-11T00:08:53.464Z,22.70
2019-06-11T00:11:23.129Z,22.60
2019-06-11T00:13:52.673Z,22.50
2019-06-11T00:16:23.263Z,22.30
2019-06-11T00:18:53.510Z,22.40
2019-06-11T00:21:22.826Z,22.50
2019-06-11T00:23:52.253Z,22.50
2019-06-11T00:26:22.602Z,22.40
2019-06-11T00:28:52.803Z,22.50
2019-06-11T00:31:22.943Z,22.40
2019-06-11T00:33:52.444Z,22.40
2019-06-11T00:36:22.723Z,22.40
2019-06-11T00:38:53.144Z,22.40
2019-06-11T00:41:22.725Z,22.50
2019-06-11T00:43:53.439Z,22.50
2019-06-11T00:46:23.484Z,22.50
2019-06-11T00:48:52.816Z,22.50
2019-06-11T00:51:23.948Z,22.50
2019-06-11T00:53:52.835Z,22.50
2019-06-11T00:56:23.298Z,22.50
2019-06-11T00:58:52.406Z,22.50
2019-06-11T01:01:22.520Z,22.50
2019-06-11T01:03:52.997Z,22.40
2019-06-11T01:06:23.219Z,22.30
2019-06-11T01:08:53.124Z,22.30
2019-06-11T01:11:22.586Z,22.40
2019-06-11T01:13:53.362Z,22.40
2019-06-11T01:16:22.996Z,22.40
2019-06-11T01:18:52.645Z,22.40
2019-06-11T01:21:23.535Z,22.30
2019-06-11T01:23:52.691Z,22.40
2019-06-11T01:26:23.821Z,22.30
2019-06-11T01:28:52.436Z,22.30
2019-06-11T01:31:22.797Z,22.30
2019-06-11T01:33:52.393Z,22.30
2019-06-11T01:36:23.488Z,22.30
2019-06-11T01:38:52.463Z,22.30
2019-06-11T01:41:22.557Z,22.20
2019-06-11T01:43:52.508Z,22.10
2019-06-11T01:46:22.549Z,22.00
2019-06-11T01:48:53.752Z,22.10
2019-06-11T01:51:23.805Z,22.10
2019-06-11T01:53:54.310Z,22.10
2019-06-11T01:56:23.279Z,22.10
2019-06-11T01:58:52.785Z,22.10
2019-06-11T02:01:26.592Z,22.10
2019-06-11T02:03:52.730Z,22.10
2019-06-11T02:06:23.451Z,22.00
2019-06-11T02:08:52.401Z,21.90
2019-06-11T02:11:23.502Z,21.80
2019-06-11T02:13:52.588Z,21.90
2019-06-11T02:16:24.522Z,21.80
2019-06-11T02:18:53.057Z,21.80
2019-06-11T02:21:23.670Z,21.80
2019-06-11T02:23:52.679Z,21.80
2019-06-11T02:26:22.918Z,21.70
2019-06-11T02:28:52.986Z,21.70
2019-06-11T02:31:31.988Z,21.80
2019-06-11T02:34:18.728Z,21.80
2019-06-11T02:36:30.278Z,21.80
2019-06-11T02:38:53.229Z,21.70
2019-06-11T02:41:27.641Z,21.70
2019-06-11T02:43:52.466Z,21.70
2019-06-11T02:46:28.588Z,21.70
2019-06-11T02:48:55.704Z,21.70
2019-06-11T02:51:27.703Z,21.60
2019-06-11T02:53:52.468Z,21.60
2019-06-11T02:56:28.147Z,21.60
2019-06-11T02:58:51.909Z,21.40
2019-06-11T03:01:29.574Z,21.40
2019-06-11T03:04:15.429Z,21.50
2019-06-11T03:06:31.516Z,21.50
2019-06-11T03:08:55.338Z,21.50
2019-06-11T03:11:33.540Z,21.50
2019-06-11T03:13:57.928Z,21.50
2019-06-11T03:16:37.366Z,21.50
2019-06-11T03:19:02.936Z,21.50
2019-06-11T03:21:38.155Z,21.50
2019-06-11T03:24:01.887Z,21.50
2019-06-11T03:26:35.472Z,21.50
2019-06-11T03:29:02.240Z,21.50
2019-06-11T03:32:24.262Z,21.50
2019-06-11T03:34:24.975Z,21.50
2019-06-11T03:37:06.759Z,21.50
2019-06-11T03:39:16.963Z,21.40
2019-06-11T03:41:34.758Z,21.30
2019-06-11T03:44:04.011Z,21.20
2019-06-11T03:46:35.859Z,21.20
2019-06-11T03:49:03.101Z,21.20
2019-06-11T03:51:35.793Z,21.30
2019-06-11T03:54:26.868Z,21.20
2019-06-11T03:56:52.145Z,21.20
2019-06-11T03:59:27.737Z,21.20
2019-06-11T04:01:51.440Z,21.20
2019-06-11T04:04:26.392Z,21.10
2019-06-11T04:07:09.541Z,21.10
2019-06-11T04:09:28.937Z,21.10
2019-06-11T04:11:51.662Z,21.10
2019-06-11T04:14:25.725Z,21.10
2019-06-11T04:17:11.551Z,21.10
2019-06-11T04:19:27.756Z,21.10
2019-06-11T04:21:52.338Z,21.00
2019-06-11T04:24:26.350Z,20.90
2019-06-11T04:26:51.832Z,21.00
2019-06-11T04:29:25.857Z,21.00
2019-06-11T04:31:51.757Z,21.00
2019-06-11T04:34:30.163Z,20.90
2019-06-11T04:37:05.270Z,20.90
2019-06-11T04:39:28.980Z,20.90
2019-06-11T04:41:52.227Z,20.90
2019-06-11T04:44:25.614Z,20.90
2019-06-11T04:46:51.616Z,20.90
2019-06-11T04:49:26.623Z,20.90
2019-06-11T04:51:51.522Z,20.90
2019-06-11T04:54:25.359Z,20.90
2019-06-11T04:56:52.988Z,20.90
2019-06-11T04:59:29.852Z,20.90
2019-06-11T05:06:54.418Z,20.80
2019-06-11T05:09:28.973Z,20.80
2019-06-11T05:11:53.663Z,20.80
2019-06-11T05:14:36.915Z,20.70
2019-06-11T05:16:52.855Z,20.80
2019-06-11T05:19:28.442Z,20.70
2019-06-11T05:21:52.376Z,20.70
2019-06-11T05:24:29.260Z,20.80
2019-06-11T05:26:51.530Z,20.70
2019-06-11T05:29:23.459Z,20.80
2019-06-11T05:31:51.791Z,20.80
2019-06-11T05:34:23.987Z,20.70
2019-06-11T05:36:51.949Z,20.80
2019-06-11T05:39:24.279Z,20.70
2019-06-11T05:41:51.300Z,20.60
2019-06-11T05:44:24.891Z,20.60
2019-06-11T05:46:52.340Z,20.60
2019-06-11T05:49:23.977Z,20.70
2019-06-11T05:51:51.393Z,20.60
2019-06-11T05:54:20.944Z,20.70
2019-06-11T05:56:50.772Z,20.70
2019-06-11T05:59:22.664Z,20.70
2019-06-11T06:01:56.980Z,20.60
2019-06-11T06:04:20.806Z,20.60
2019-06-11T06:06:50.935Z,20.60
2019-06-11T06:09:20.098Z,20.50
2019-06-11T06:11:50.952Z,20.50
2019-06-11T06:14:20.884Z,20.50
2019-06-11T06:16:51.211Z,20.50
2019-06-11T06:19:20.885Z,20.50
2019-06-11T06:21:50.965Z,20.50
2019-06-11T06:24:26.931Z,20.50
2019-06-11T06:26:52.001Z,20.50
2019-06-11T06:29:21.349Z,20.50
2019-06-11T06:31:50.906Z,20.50
2019-06-11T06:34:20.879Z,20.40
2019-06-11T06:36:50.484Z,20.50
2019-06-11T06:39:20.516Z,20.50
2019-06-11T06:41:50.191Z,20.60
2019-06-11T06:44:20.992Z,20.60
2019-06-11T06:46:50.285Z,20.50
2019-06-11T06:49:20.644Z,20.50
2019-06-11T06:51:50.938Z,20.40
2019-06-11T06:54:20.355Z,20.40
2019-06-11T06:56:50.932Z,20.30
2019-06-11T06:59:20.890Z,20.30
2019-06-11T07:01:51.110Z,20.30
2019-06-11T07:04:21.108Z,20.20
2019-06-11T07:06:50.555Z,20.20
2019-06-11T07:09:21.392Z,20.00
2019-06-11T07:11:51.236Z,20.20
2019-06-11T07:14:21.538Z,20.20
2019-06-11T07:19:21.894Z,19.90
2019-06-11T07:21:51.733Z,19.90
2019-06-11T07:24:21.019Z,20.00
2019-06-11T07:26:51.111Z,20.10
2019-06-11T07:29:21.040Z,20.20
2019-06-11T07:31:51.173Z,20.30
2019-06-11T07:34:21.709Z,20.30
2019-06-11T07:36:51.223Z,20.40
2019-06-11T07:39:27.236Z,20.30
2019-06-11T07:41:51.632Z,20.40
2019-06-11T07:44:21.116Z,19.80
2019-06-11T07:47:00.423Z,20.30
2019-06-11T07:49:22.532Z,20.40
2019-06-11T07:51:52.874Z,20.30
2019-06-11T07:54:21.747Z,20.40
2019-06-11T07:56:53.542Z,20.50
2019-06-11T08:01:55.144Z,20.40
2019-06-11T08:04:21.772Z,20.40
2019-06-11T08:06:56.095Z,20.20
2019-06-11T08:09:42.197Z,20.20
2019-06-11T08:11:57.318Z,20.20
2019-06-11T08:14:23.097Z,20.30
2019-06-11T08:16:56.399Z,20.40
2019-06-11T08:19:37.481Z,20.30
2019-06-11T08:22:14.849Z,20.30
2019-06-11T08:24:28.946Z,20.40
2019-06-11T08:26:55.847Z,20.00
2019-06-11T08:27:06.958Z,20.60
2019-06-11T08:29:24.691Z,20.10
2019-06-11T08:31:53.386Z,20.10
2019-06-11T08:34:22.821Z,20.20
2019-06-11T08:36:51.715Z,20.40
2019-06-11T08:39:20.785Z,20.60
2019-06-11T08:41:51.138Z,20.60
2019-06-11T08:44:20.878Z,20.70
2019-06-11T08:46:50.966Z,20.80
2019-06-11T08:49:20.440Z,20.90
2019-06-11T08:51:51.053Z,21.10
2019-06-11T08:54:20.241Z,21.00
2019-06-11T08:56:51.274Z,21.00
2019-06-11T08:59:21.030Z,21.00
2019-06-11T09:01:51.852Z,21.20
2019-06-11T09:04:20.346Z,21.20
2019-06-11T09:06:53.444Z,21.00
2019-06-11T09:09:21.612Z,21.00
2019-06-11T09:11:53.529Z,21.00
2019-06-11T09:14:20.934Z,21.00
2019-06-11T09:16:57.095Z,21.00
2019-06-11T09:19:20.713Z,21.10
2019-06-11T09:21:54.269Z,21.10
2019-06-11T09:24:21.544Z,21.00
2019-06-11T09:26:53.187Z,21.10
2019-06-11T09:29:22.325Z,21.30
2019-06-11T09:31:58.028Z,21.40
2019-06-11T09:34:21.472Z,21.60
2019-06-11T09:36:53.644Z,21.70
2019-06-11T09:39:20.655Z,21.80
2019-06-11T09:41:51.892Z,21.70
2019-06-11T09:44:21.166Z,21.70
2019-06-11T09:46:53.588Z,21.60
2019-06-11T09:49:21.056Z,21.60
2019-06-11T09:51:53.529Z,21.60
2019-06-11T09:54:21.022Z,21.70
2019-06-11T09:56:52.133Z,21.90
2019-06-11T09:59:20.615Z,22.00
2019-06-11T10:01:52.608Z,21.90
2019-06-11T10:04:21.352Z,22.00
2019-06-11T10:06:52.135Z,22.10
2019-06-11T10:09:21.182Z,22.00
2019-06-11T10:11:58.227Z,21.90
2019-06-11T10:14:21.089Z,21.90
2019-06-11T10:16:50.631Z,22.00
2019-06-11T10:19:20.762Z,22.00
2019-06-11T10:21:52.989Z,22.00
2019-06-11T10:24:24.150Z,22.00
2019-06-11T10:26:55.863Z,22.20
2019-06-11T10:29:23.996Z,22.30
2019-06-11T10:31:53.918Z,22.30
2019-06-11T10:34:22.806Z,22.30
2019-06-11T10:36:53.638Z,22.10
2019-06-11T10:39:21.909Z,22.00
2019-06-11T10:41:59.021Z,22.10
2019-06-11T10:44:21.009Z,22.10
2019-06-11T10:46:50.614Z,22.10
2019-06-11T10:49:20.982Z,22.20
2019-06-11T10:51:51.009Z,22.10
2019-06-11T10:54:20.349Z,22.30
2019-06-11T10:56:51.675Z,22.30
2019-06-11T10:59:21.269Z,22.30
2019-06-11T11:01:54.933Z,22.40
2019-06-11T11:04:20.537Z,22.40
2019-06-11T11:07:10.505Z,22.30
2019-06-11T11:09:38.936Z,22.50
2019-06-11T11:12:21.579Z,22.70
2019-06-11T11:14:40.660Z,22.80
2019-06-11T11:17:11.102Z,22.80
2019-06-11T11:19:40.500Z,22.80
2019-06-11T11:22:11.839Z,22.80
2019-06-11T11:24:40.515Z,22.80
2019-06-11T11:27:10.288Z,22.90
2019-06-11T11:29:40.320Z,23.00
2019-06-11T11:32:10.230Z,23.10
2019-06-11T11:34:39.251Z,23.10
2019-06-11T11:37:10.568Z,23.30
2019-06-11T11:39:40.863Z,23.30
2019-06-11T11:42:11.287Z,23.30
2019-06-11T11:44:40.335Z,23.20
2019-06-11T11:47:10.742Z,23.10
2019-06-11T11:49:41.872Z,23.00
2019-06-11T11:52:13.509Z,23.00
2019-06-11T11:54:47.124Z,23.00
2019-06-11T11:57:20.918Z,23.00
2019-06-11T11:59:53.892Z,23.10
2019-06-11T12:02:21.609Z,23.20
2019-06-11T12:04:58.744Z,23.10
2019-06-11T12:07:21.217Z,23.10
2019-06-11T12:09:51.856Z,23.00
2019-06-11T12:12:20.604Z,23.00
2019-06-11T12:14:54.278Z,23.00
2019-06-11T12:17:20.180Z,23.10
2019-06-11T12:19:51.124Z,23.30
2019-06-11T12:22:20.462Z,23.30
2019-06-11T12:24:56.473Z,23.20
2019-06-11T12:27:20.515Z,23.30
2019-06-11T12:29:51.759Z,23.30
2019-06-11T12:32:21.235Z,23.30
2019-06-11T12:34:53.263Z,23.40
2019-06-11T12:37:20.879Z,23.50
2019-06-11T12:39:53.037Z,23.70
2019-06-11T12:42:20.438Z,23.90
2019-06-11T12:44:51.928Z,23.80
2019-06-11T12:47:20.974Z,23.80
2019-06-11T12:49:52.420Z,24.00
2019-06-11T12:52:21.193Z,24.20
2019-06-11T12:54:52.212Z,24.20
2019-06-11T12:57:20.671Z,24.30
2019-06-11T12:59:51.227Z,24.20
2019-06-11T13:02:22.088Z,24.10
2019-06-11T13:04:51.450Z,23.80
2019-06-11T13:07:20.888Z,23.80
2019-06-11T13:09:52.916Z,24.00
2019-06-11T13:12:22.189Z,24.30
2019-06-11T13:14:52.251Z,24.50
2019-06-11T13:17:21.550Z,24.60
2019-06-11T13:19:52.487Z,24.80
2019-06-11T13:22:21.307Z,24.80
2019-06-11T13:24:51.255Z,24.80
2019-06-11T13:27:25.483Z,24.80
2019-06-11T13:29:51.453Z,24.80
2019-06-11T13:32:21.375Z,24.80
2019-06-11T13:35:10.766Z,24.90
2019-06-11T13:37:40.280Z,24.80
2019-06-11T13:40:12.297Z,24.70
2019-06-11T13:42:40.233Z,24.80
2019-06-11T13:45:10.942Z,24.80
2019-06-11T13:47:44.053Z,24.80
2019-06-11T13:50:12.222Z,24.90
2019-06-11T13:52:41.490Z,24.90
2019-06-11T13:55:11.641Z,24.90
2019-06-11T13:57:40.535Z,25.00
2019-06-11T14:00:14.768Z,25.00
2019-06-11T14:02:40.775Z,25.10
2019-06-11T14:05:11.191Z,25.10
2019-06-11T14:07:41.606Z,25.10
2019-06-11T14:10:12.141Z,24.90
2019-06-11T14:12:41.776Z,24.90
2019-06-11T14:15:14.326Z,24.90
2019-06-11T14:17:42.605Z,24.90
2019-06-11T14:20:11.881Z,24.90
2019-06-11T14:22:41.206Z,24.80
2019-06-11T14:25:10.121Z,24.80
2019-06-11T14:27:40.292Z,24.80
2019-06-11T14:30:16.318Z,24.80
2019-06-11T14:32:41.575Z,24.80
2019-06-11T14:35:11.558Z,24.70
2019-06-11T14:37:41.247Z,24.60
2019-06-11T14:40:12.035Z,24.50
2019-06-11T14:42:40.990Z,24.50
2019-06-11T14:45:11.016Z,24.50
2019-06-11T14:47:39.878Z,24.50
2019-06-11T14:50:13.577Z,24.40
2019-06-11T14:52:39.105Z,24.50
2019-06-11T14:55:15.235Z,24.50
2019-06-11T14:57:40.555Z,24.60
2019-06-11T15:00:10.688Z,24.70
2019-06-11T15:02:41.605Z,24.70
2019-06-11T15:05:12.763Z,24.80
2019-06-11T15:07:42.231Z,24.90
2019-06-11T15:10:12.171Z,24.90
2019-06-11T15:12:41.156Z,24.80
2019-06-11T15:15:18.529Z,24.80
2019-06-11T15:17:42.349Z,24.80
2019-06-11T15:20:20.800Z,24.90
2019-06-11T15:22:42.195Z,25.00
2019-06-11T15:25:12.560Z,25.30
2019-06-11T15:27:41.542Z,25.50
2019-06-11T15:30:22.414Z,25.40
2019-06-11T15:32:41.241Z,25.30
2019-06-11T15:35:13.436Z,25.20
2019-06-11T15:37:41.000Z,25.30
2019-06-11T15:40:14.006Z,25.40
2019-06-11T15:42:40.774Z,25.30
2019-06-11T15:45:29.197Z,25.20
2019-06-11T15:47:41.094Z,25.20
2019-06-11T15:50:13.307Z,25.10
2019-06-11T15:52:41.576Z,25.20
2019-06-11T15:55:11.282Z,25.30
2019-06-11T15:57:40.592Z,25.10
2019-06-11T16:00:12.008Z,24.90
2019-06-11T16:02:41.381Z,24.80
2019-06-11T16:05:13.313Z,24.70
2019-06-11T16:07:42.014Z,24.80
2019-06-11T16:10:14.923Z,25.00
2019-06-11T16:12:41.767Z,25.20
2019-06-11T16:15:18.033Z,25.20
2019-06-11T16:17:41.773Z,25.20
2019-06-11T16:20:16.607Z,25.20
2019-06-11T16:22:43.267Z,25.10
2019-06-11T16:25:16.093Z,25.00
2019-06-11T16:27:42.784Z,24.90
2019-06-11T16:30:16.258Z,24.90
2019-06-11T16:32:42.402Z,24.90
2019-06-11T16:35:12.754Z,24.80
2019-06-11T16:37:41.489Z,24.80
2019-06-11T16:40:13.193Z,24.80
2019-06-11T16:42:41.497Z,24.90
2019-06-11T16:45:12.722Z,24.80
2019-06-11T16:47:41.481Z,24.80
2019-06-11T16:50:12.339Z,24.70
2019-06-11T16:52:41.164Z,24.60
2019-06-11T16:55:13.464Z,24.50
2019-06-11T16:57:40.763Z,24.30
2019-06-11T17:00:18.237Z,24.20
2019-06-11T17:02:41.083Z,24.10
2019-06-11T17:05:13.827Z,23.90
2019-06-11T17:07:43.529Z,23.90
2019-06-11T17:10:16.584Z,23.90
2019-06-11T17:12:42.521Z,23.80
2019-06-11T17:15:13.906Z,23.80
2019-06-11T17:17:42.215Z,23.80
2019-06-11T17:20:13.951Z,23.80
2019-06-11T17:22:42.152Z,23.80
2019-06-11T17:25:16.817Z,23.70
2019-06-11T17:27:49.028Z,23.60
2019-06-11T17:30:14.585Z,23.60
2019-06-11T17:32:43.651Z,23.60
2019-06-11T17:35:14.449Z,23.60
2019-06-11T17:37:44.383Z,23.60
2019-06-11T17:40:14.073Z,23.60
2019-06-11T17:42:42.877Z,23.70
2019-06-11T17:45:13.311Z,23.80
2019-06-11T17:47:42.682Z,23.80
2019-06-11T17:50:14.283Z,23.80
2019-06-11T17:52:42.259Z,23.90
2019-06-11T17:55:11.243Z,23.90
2019-06-11T17:57:40.310Z,24.10
2019-06-11T18:00:14.050Z,24.10
2019-06-11T18:02:41.648Z,24.00
2019-06-11T18:05:10.965Z,23.90
2019-06-11T18:07:41.603Z,23.90
2019-06-11T18:10:12.342Z,23.80
2019-06-11T18:12:41.083Z,23.80
2019-06-11T18:15:10.869Z,23.70
2019-06-11T18:17:41.147Z,23.80
2019-06-11T18:20:11.494Z,23.70
2019-06-11T18:22:40.869Z,23.70
2019-06-11T18:25:10.632Z,23.70
2019-06-11T18:27:40.963Z,23.70
2019-06-11T18:30:10.334Z,23.70
2019-06-11T18:32:40.854Z,23.70
2019-06-11T18:35:11.301Z,23.70
2019-06-11T18:37:41.323Z,23.70
2019-06-11T18:40:10.971Z,23.70
2019-06-11T18:42:40.758Z,23.80
2019-06-11T18:45:10.841Z,23.80
2019-06-11T18:47:40.293Z,23.80
2019-06-11T18:50:10.933Z,23.80
2019-06-11T18:52:40.645Z,23.70
2019-06-11T18:55:10.025Z,23.70
2019-06-11T18:57:40.123Z,23.60
2019-06-11T19:00:09.569Z,23.50
2019-06-11T19:02:40.769Z,23.40
2019-06-11T19:05:10.141Z,23.30
2019-06-11T19:07:40.718Z,23.30
2019-06-11T19:10:10.812Z,23.30
2019-06-11T19:12:41.065Z,23.30
2019-06-11T19:15:10.941Z,23.30
2019-06-11T19:17:47.355Z,23.20
2019-06-11T19:20:14.754Z,23.20
2019-06-11T19:22:42.686Z,23.20
2019-06-11T19:25:11.496Z,23.20
2019-06-11T19:27:44.473Z,23.20
2019-06-11T19:30:11.245Z,23.20
2019-06-11T19:32:43.610Z,23.20
2019-06-11T19:35:11.568Z,23.20
2019-06-11T19:37:41.046Z,23.10
2019-06-11T19:40:11.260Z,23.00
2019-06-11T19:42:40.837Z,23.00
2019-06-11T19:45:10.893Z,22.90
2019-06-11T19:47:52.496Z,22.90
2019-06-11T19:50:10.848Z,22.80
2019-06-11T19:52:40.767Z,22.80
2019-06-11T19:55:12.749Z,22.80
2019-06-11T19:57:41.639Z,22.80
2019-06-11T20:00:11.622Z,22.80
2019-06-11T20:02:40.658Z,22.80
2019-06-11T20:05:10.723Z,22.80
2019-06-11T20:07:41.030Z,22.80
2019-06-11T20:10:10.742Z,22.80
2019-06-11T20:12:41.147Z,22.80
2019-06-11T20:15:11.155Z,22.80
2019-06-11T20:17:44.315Z,22.80
2019-06-11T20:20:11.273Z,22.80
2019-06-11T20:22:40.367Z,22.80
2019-06-11T20:25:10.050Z,22.80
2019-06-11T20:27:41.216Z,22.80
2019-06-11T20:30:12.674Z,22.80
2019-06-11T20:32:44.756Z,22.80
2019-06-11T20:35:12.166Z,22.90
2019-06-11T20:37:41.929Z,23.00
2019-06-11T20:40:11.535Z,23.00
2019-06-11T20:42:42.699Z,23.00
2019-06-11T20:45:11.314Z,23.00
2019-06-11T20:47:41.993Z,22.90
2019-06-11T20:50:11.417Z,23.00
2019-06-11T20:52:41.774Z,23.00
2019-06-11T20:55:11.629Z,23.00
2019-06-11T20:57:43.486Z,23.00
2019-06-11T21:00:11.977Z,22.90
2019-06-11T21:02:43.682Z,23.00
2019-06-11T21:05:11.156Z,23.20
2019-06-11T21:07:43.957Z,23.20
2019-06-11T21:10:12.026Z,23.20
2019-06-11T21:12:43.783Z,23.10
2019-06-11T21:15:12.360Z,23.20
2019-06-11T21:17:42.892Z,23.40
2019-06-11T21:20:11.969Z,23.50
2019-06-11T21:22:42.475Z,23.50
2019-06-11T21:25:11.088Z,23.40
2019-06-11T21:27:41.009Z,23.20
2019-06-11T21:30:10.627Z,23.10
2019-06-11T21:32:41.500Z,23.00
2019-06-11T21:35:10.427Z,22.90
2019-06-11T21:37:45.100Z,22.80
2019-06-11T21:40:11.230Z,22.80
2019-06-11T21:42:43.940Z,22.80
2019-06-11T21:45:11.089Z,22.80
2019-06-11T21:47:42.771Z,22.90
2019-06-11T21:50:10.672Z,22.90
2019-06-11T21:52:42.344Z,22.90
2019-06-11T21:55:10.218Z,23.00
2019-06-11T21:57:42.217Z,23.10
2019-06-11T22:00:11.791Z,23.10
2019-06-11T22:02:42.899Z,23.00
2019-06-11T22:05:11.439Z,22.90
2019-06-11T22:07:42.652Z,22.80
2019-06-11T22:10:12.150Z,22.70
2019-06-11T22:12:40.831Z,22.70
2019-06-11T22:15:11.150Z,22.60
2019-06-11T22:17:41.952Z,22.60
2019-06-11T22:20:11.397Z,22.60
2019-06-11T22:22:42.274Z,22.60
2019-06-11T22:25:10.814Z,22.70
2019-06-11T22:27:41.591Z,22.70
2019-06-11T22:30:10.864Z,22.80
2019-06-11T22:32:39.911Z,22.90
2019-06-11T22:35:10.589Z,22.90
2019-06-11T22:37:41.424Z,22.90
2019-06-11T22:40:11.303Z,22.80
2019-06-11T22:42:41.580Z,22.90
2019-06-11T22:45:11.135Z,23.00
2019-06-11T22:47:42.826Z,23.00
2019-06-11T22:50:10.362Z,23.00
2019-06-11T22:52:42.443Z,23.00
2019-06-11T22:55:10.523Z,23.00
2019-06-11T22:57:43.289Z,22.90
2019-06-11T23:00:11.111Z,22.80
2019-06-11T23:02:40.672Z,22.80
2019-06-11T23:05:10.452Z,22.70
2019-06-11T23:07:41.020Z,22.70
2019-06-11T23:10:10.738Z,22.80
2019-06-11T23:12:41.133Z,22.80
2019-06-11T23:15:11.279Z,22.90
2019-06-11T23:17:42.128Z,22.90
2019-06-11T23:20:10.863Z,22.90
2019-06-11T23:22:39.523Z,22.90
2019-06-11T23:25:10.614Z,22.90
2019-06-11T23:27:40.342Z,22.90
2019-06-11T23:30:11.300Z,22.90
2019-06-11T23:32:40.532Z,22.90
2019-06-11T23:35:09.435Z,22.90
2019-06-11T23:37:40.655Z,22.90
2019-06-11T23:40:10.875Z,22.90
2019-06-11T23:42:38.979Z,22.90
2019-06-11T23:45:10.327Z,22.90
2019-06-11T23:47:40.772Z,22.90
2019-06-11T23:50:18.168Z,22.90
2019-06-11T23:52:41.155Z,22.90
2019-06-11T23:55:10.404Z,22.80
2019-06-11T23:57:41.042Z,22.80
